createdAt,value
2016-11-22T00:01:00.906Z,998.44
2016-11-22T00:02:12.143Z,998.48
2016-11-22T00:03:23.178Z,998.34
2016-11-22T00:04:34.404Z,998.3
2016-11-22T00:05:45.481Z,998.3
2016-11-22T00:06:56.715Z,998.23
2016-11-22T00:08:07.747Z,998.32
2016-11-22T00:09:18.766Z,998.36
2016-11-22T00:10:29.794Z,998.45
2016-11-22T00:11:40.881Z,998.45
2016-11-22T00:12:51.924Z,998.53
2016-11-22T00:14:02.954Z,998.62
2016-11-22T00:15:13.982Z,998.63
2016-11-22T00:16:25.218Z,998.68
2016-11-22T00:17:36.298Z,998.78
2016-11-22T00:18:47.339Z,998.77
2016-11-22T00:19:58.359Z,998.67
2016-11-22T00:21:09.415Z,998.73
2016-11-22T00:22:20.653Z,998.72
2016-11-22T00:23:31.741Z,998.74
2016-11-22T00:24:42.774Z,998.77
2016-11-22T00:25:54.011Z,998.78
2016-11-22T00:27:05.442Z,998.81
2016-11-22T00:28:16.691Z,998.7
2016-11-22T00:29:28.010Z,998.74
2016-11-22T00:30:39.061Z,998.78
2016-11-22T00:31:50.101Z,998.7
2016-11-22T00:33:01.138Z,998.69
2016-11-22T00:34:12.181Z,998.62
2016-11-22T00:35:23.266Z,998.7
2016-11-22T00:36:34.296Z,998.71
2016-11-22T00:37:45.528Z,998.81
2016-11-22T00:38:56.754Z,998.83
2016-11-22T00:40:07.996Z,998.81
2016-11-22T00:41:19.302Z,998.8
2016-11-22T00:42:30.345Z,998.85
2016-11-22T00:43:41.376Z,998.85
2016-11-22T00:44:52.412Z,998.8
2016-11-22T00:46:03.447Z,998.85
2016-11-22T00:47:14.546Z,998.76
2016-11-22T00:48:25.578Z,998.71
2016-11-22T00:49:37.006Z,998.66
2016-11-22T00:50:48.045Z,998.56
2016-11-22T00:51:59.091Z,998.49
2016-11-22T00:53:10.183Z,998.52
2016-11-22T00:54:21.220Z,998.56
2016-11-22T00:55:32.258Z,998.55
2016-11-22T00:56:43.498Z,998.54
2016-11-22T00:57:54.541Z,998.48
2016-11-22T00:59:05.647Z,998.37
2016-11-22T01:00:16.717Z,998.35
2016-11-22T01:01:27.757Z,998.33
2016-11-22T01:02:38.990Z,998.41
2016-11-22T01:03:50.023Z,998.44
2016-11-22T01:05:01.099Z,998.48
2016-11-22T01:06:12.120Z,998.48
2016-11-22T01:07:23.168Z,998.51
2016-11-22T01:08:34.205Z,998.48
2016-11-22T01:09:45.236Z,998.46
2016-11-22T01:10:56.267Z,998.31
2016-11-22T01:12:07.288Z,998.37
2016-11-22T01:13:18.324Z,998.4
2016-11-22T01:14:29.353Z,998.5
2016-11-22T01:15:40.438Z,998.59
2016-11-22T01:16:51.461Z,998.68
2016-11-22T01:18:02.696Z,998.67
2016-11-22T01:19:13.728Z,998.66
2016-11-22T01:20:24.755Z,998.63
2016-11-22T01:21:35.857Z,998.54
2016-11-22T01:22:46.890Z,998.5
2016-11-22T01:23:58.135Z,998.48
2016-11-22T01:25:09.178Z,998.53
2016-11-22T01:26:20.204Z,998.55
2016-11-22T01:27:31.302Z,998.56
2016-11-22T01:28:42.936Z,998.57
2016-11-22T01:29:53.969Z,998.49
2016-11-22T01:31:05.009Z,998.49
2016-11-22T01:32:16.050Z,998.46
2016-11-22T01:33:27.134Z,998.42
2016-11-22T01:34:38.176Z,998.39
2016-11-22T01:35:49.219Z,998.42
2016-11-22T01:37:00.465Z,998.45
2016-11-22T01:38:11.502Z,998.46
2016-11-22T01:39:22.598Z,998.48
2016-11-22T01:40:33.629Z,998.52
2016-11-22T01:41:44.670Z,998.55
2016-11-22T01:42:55.703Z,998.55
2016-11-22T01:44:06.731Z,998.52
2016-11-22T01:45:17.823Z,998.54
2016-11-22T01:46:28.855Z,998.47
2016-11-22T01:47:39.891Z,998.53
2016-11-22T01:48:50.921Z,998.51
2016-11-22T01:50:01.948Z,998.46
2016-11-22T01:51:13.038Z,998.45
2016-11-22T01:52:24.071Z,998.39
2016-11-22T01:53:35.139Z,998.46
2016-11-22T01:54:46.169Z,998.47
2016-11-22T01:55:57.203Z,998.59
2016-11-22T01:57:08.484Z,998.62
2016-11-22T01:58:19.515Z,998.61
2016-11-22T01:59:30.549Z,998.67
2016-11-22T02:00:41.573Z,998.65
2016-11-22T02:01:52.839Z,998.72
2016-11-22T02:03:03.915Z,998.73
2016-11-22T02:04:14.971Z,998.7
2016-11-22T02:05:26.005Z,998.72
2016-11-22T02:06:37.069Z,998.73
2016-11-22T02:07:48.109Z,998.63
2016-11-22T02:08:59.396Z,998.71
2016-11-22T02:10:10.456Z,998.66
2016-11-22T02:11:21.496Z,998.65
2016-11-22T02:12:32.774Z,998.57
2016-11-22T02:13:43.816Z,998.58
2016-11-22T02:14:54.928Z,998.64
2016-11-22T02:16:05.964Z,998.61
2016-11-22T02:17:16.994Z,998.59
2016-11-22T02:18:28.025Z,998.53
2016-11-22T02:19:39.061Z,998.6
2016-11-22T02:20:50.355Z,998.6
2016-11-22T02:22:01.376Z,998.54
2016-11-22T02:23:12.398Z,998.52
2016-11-22T02:24:23.642Z,998.54
2016-11-22T02:25:34.881Z,998.52
2016-11-22T02:26:45.954Z,998.5
2016-11-22T02:27:56.993Z,998.51
2016-11-22T02:29:08.039Z,998.52
2016-11-22T02:30:19.068Z,998.56
2016-11-22T02:31:30.113Z,998.63
2016-11-22T02:32:41.398Z,998.66
2016-11-22T02:33:52.428Z,998.68
2016-11-22T02:35:03.463Z,998.66
2016-11-22T02:36:14.504Z,998.82
2016-11-22T02:37:25.742Z,998.65
2016-11-22T02:38:36.821Z,998.56
2016-11-22T02:39:47.844Z,998.56
2016-11-22T02:40:58.869Z,998.66
2016-11-22T02:42:09.904Z,998.68
2016-11-22T02:43:21.143Z,998.63
2016-11-22T02:44:32.262Z,998.6
2016-11-22T02:45:43.511Z,998.59
2016-11-22T02:46:54.545Z,998.57
2016-11-22T02:48:05.586Z,998.47
2016-11-22T02:49:16.624Z,998.45
2016-11-22T02:50:27.720Z,998.42
2016-11-22T02:51:38.753Z,998.5
2016-11-22T02:52:49.785Z,998.6
2016-11-22T02:54:00.822Z,998.57
2016-11-22T02:55:11.860Z,998.6
2016-11-22T02:56:22.933Z,998.75
2016-11-22T02:57:33.967Z,999.02
2016-11-22T02:58:45.192Z,999.17
2016-11-22T02:59:56.428Z,999.26
2016-11-22T03:01:07.479Z,999.33
2016-11-22T03:02:18.556Z,999.29
2016-11-22T03:03:29.588Z,999.29
2016-11-22T03:04:40.627Z,999.32
2016-11-22T03:05:51.652Z,999.35
2016-11-22T03:07:02.905Z,999.35
2016-11-22T03:08:14.189Z,999.37
2016-11-22T03:09:25.427Z,999.43
2016-11-22T03:10:36.465Z,999.49
2016-11-22T03:11:47.490Z,999.46
2016-11-22T03:12:58.530Z,999.49
2016-11-22T03:14:09.617Z,999.43
2016-11-22T03:15:20.661Z,999.34
2016-11-22T03:16:31.702Z,999.35
2016-11-22T03:17:42.727Z,999.33
2016-11-22T03:18:53.770Z,999.28
2016-11-22T03:20:04.851Z,999.29
2016-11-22T03:21:15.890Z,999.24
2016-11-22T03:22:26.924Z,999.24
2016-11-22T03:23:37.963Z,999.2
2016-11-22T03:24:49.001Z,999.15
2016-11-22T03:26:00.080Z,999.23
2016-11-22T03:27:11.105Z,999.27
2016-11-22T03:28:22.146Z,999.4
2016-11-22T03:29:33.183Z,999.53
2016-11-22T03:30:44.219Z,999.56
2016-11-22T03:31:55.296Z,999.64
2016-11-22T03:33:06.339Z,999.63
2016-11-22T03:34:17.382Z,999.59
2016-11-22T03:35:28.424Z,999.48
2016-11-22T03:36:39.461Z,999.55
2016-11-22T03:37:50.584Z,999.6
2016-11-22T03:39:01.816Z,999.64
2016-11-22T03:40:12.856Z,999.65
2016-11-22T03:41:23.888Z,999.58
2016-11-22T03:42:34.930Z,999.59
2016-11-22T03:43:46.004Z,999.59
2016-11-22T03:44:57.233Z,999.6
2016-11-22T03:46:08.272Z,999.58
2016-11-22T03:47:19.516Z,999.54
2016-11-22T03:48:30.541Z,999.44
2016-11-22T03:49:41.632Z,999.5
2016-11-22T03:50:52.657Z,999.49
2016-11-22T03:52:03.684Z,999.48
2016-11-22T03:53:14.725Z,999.52
2016-11-22T03:54:25.790Z,999.59
2016-11-22T03:55:36.887Z,999.62
2016-11-22T03:56:48.124Z,999.62
2016-11-22T03:57:59.356Z,999.6
2016-11-22T03:59:10.382Z,999.56
2016-11-22T04:00:21.624Z,999.62
2016-11-22T04:01:32.911Z,999.56
2016-11-22T04:02:43.954Z,999.57
2016-11-22T04:03:54.986Z,999.65
2016-11-22T04:05:06.020Z,999.66
2016-11-22T04:06:17.066Z,999.65
2016-11-22T04:07:28.341Z,999.68
2016-11-22T04:08:39.577Z,999.71
2016-11-22T04:09:50.816Z,999.7
2016-11-22T04:11:02.042Z,999.66
2016-11-22T04:12:13.077Z,999.62
2016-11-22T04:13:24.150Z,999.63
2016-11-22T04:14:35.174Z,999.81
2016-11-22T04:15:46.202Z,999.91
2016-11-22T04:16:57.251Z,999.95
2016-11-22T04:18:08.488Z,999.98
2016-11-22T04:19:19.573Z,999.94
2016-11-22T04:20:30.806Z,1000.03
2016-11-22T04:21:42.042Z,1000.04
2016-11-22T04:22:53.268Z,1000.02
2016-11-22T04:24:04.298Z,1000.04
2016-11-22T04:25:15.371Z,1000.08
2016-11-22T04:26:26.445Z,1000.11
2016-11-22T04:27:37.688Z,1000.16
2016-11-22T04:28:48.918Z,1000.18
2016-11-22T04:29:59.946Z,1000.15
2016-11-22T04:31:11.037Z,1000.14
2016-11-22T04:32:22.076Z,1000.17
2016-11-22T04:33:33.100Z,1000.2
2016-11-22T04:34:44.127Z,1000.19
2016-11-22T04:35:55.156Z,1000.13
2016-11-22T04:37:06.236Z,1000.02
2016-11-22T04:38:17.266Z,999.84
2016-11-22T04:39:28.288Z,999.73
2016-11-22T04:40:39.305Z,999.84
2016-11-22T04:41:50.349Z,999.92
2016-11-22T04:43:01.440Z,1000.06
2016-11-22T04:44:12.467Z,1000.17
2016-11-22T04:45:23.717Z,1000.28
2016-11-22T04:46:34.751Z,1000.51
2016-11-22T04:47:45.790Z,1000.72
2016-11-22T04:48:56.866Z,1000.87
2016-11-22T04:50:07.901Z,1000.97
2016-11-22T04:51:18.924Z,1000.99
2016-11-22T04:52:29.960Z,1001.07
2016-11-22T04:53:41.016Z,1001.23
2016-11-22T04:54:52.103Z,1001.16
2016-11-22T04:56:03.139Z,1001.14
2016-11-22T04:57:14.158Z,1001.1
2016-11-22T04:58:25.434Z,1001.11
2016-11-22T04:59:36.474Z,1001.1
2016-11-22T05:00:47.581Z,1001.06
2016-11-22T05:01:58.605Z,1000.96
2016-11-22T05:03:09.652Z,1000.89
2016-11-22T05:04:20.868Z,1000.84
2016-11-22T05:05:31.903Z,1000.73
2016-11-22T05:06:43.391Z,1000.75
2016-11-22T05:07:54.455Z,1000.74
2016-11-22T05:09:05.489Z,1000.75
2016-11-22T05:10:16.502Z,1000.7
2016-11-22T05:11:27.539Z,1000.7
2016-11-22T05:12:38.660Z,1000.65
2016-11-22T05:13:49.897Z,1000.63
2016-11-22T05:15:00.936Z,1000.65
2016-11-22T05:16:11.966Z,1000.68
2016-11-22T05:17:23.211Z,1000.61
2016-11-22T05:18:34.503Z,1000.68
2016-11-22T05:19:45.542Z,1000.52
2016-11-22T05:20:56.588Z,1000.44
2016-11-22T05:22:08.032Z,1000.4
2016-11-22T05:23:19.076Z,1000.34
2016-11-22T05:24:30.139Z,1000.41
2016-11-22T05:25:41.168Z,1000.45
2016-11-22T05:26:52.209Z,1000.45
2016-11-22T05:28:03.245Z,1000.47
2016-11-22T05:29:14.502Z,1000.55
2016-11-22T05:30:25.797Z,1000.55
2016-11-22T05:31:36.868Z,1000.63
2016-11-22T05:32:47.907Z,1000.6
2016-11-22T05:33:58.946Z,1000.57
2016-11-22T05:35:09.983Z,1000.55
2016-11-22T05:36:21.079Z,1000.46
2016-11-22T05:37:32.098Z,1000.46
2016-11-22T05:38:43.151Z,1000.54
2016-11-22T05:39:54.185Z,1000.67
2016-11-22T05:41:05.426Z,1000.84
2016-11-22T05:42:16.499Z,1000.93
2016-11-22T05:43:27.537Z,1001.02
2016-11-22T05:44:38.573Z,1001.03
2016-11-22T05:45:49.611Z,1000.97
2016-11-22T05:47:00.647Z,1000.82
2016-11-22T05:48:11.935Z,1000.8
2016-11-22T05:49:22.970Z,1000.87
2016-11-22T05:50:34.006Z,1000.95
2016-11-22T05:51:45.070Z,1001.04
2016-11-22T05:52:56.109Z,1001.17
2016-11-22T05:54:07.599Z,1001.16
2016-11-22T05:55:19.229Z,1001.21
2016-11-22T05:56:30.260Z,1001.32
2016-11-22T05:57:41.297Z,1001.31
2016-11-22T05:58:52.357Z,1001.35
2016-11-22T06:00:03.469Z,1001.41
2016-11-22T06:01:14.490Z,1001.41
2016-11-22T06:02:25.538Z,1001.45
2016-11-22T06:03:36.570Z,1001.4
2016-11-22T06:04:47.597Z,1001.4
2016-11-22T06:05:58.694Z,1001.4
2016-11-22T06:07:09.937Z,1001.41
2016-11-22T06:08:21.183Z,1001.42
2016-11-22T06:09:32.227Z,1001.46
2016-11-22T06:10:43.472Z,1001.55
2016-11-22T06:11:54.542Z,1001.49
2016-11-22T06:13:05.598Z,1001.46
2016-11-22T06:14:16.832Z,1001.44
2016-11-22T06:15:27.870Z,1001.46
2016-11-22T06:16:38.905Z,1001.49
2016-11-22T06:17:49.984Z,1001.59
2016-11-22T06:19:01.015Z,1001.65
2016-11-22T06:20:12.057Z,1001.59
2016-11-22T06:21:23.082Z,1001.53
2016-11-22T06:22:34.115Z,1001.54
2016-11-22T06:23:45.219Z,1001.51
2016-11-22T06:24:56.456Z,1001.5
2016-11-22T06:26:07.562Z,1001.47
2016-11-22T06:27:18.580Z,1001.44
2016-11-22T06:28:29.660Z,1001.5
2016-11-22T06:29:40.954Z,1001.58
2016-11-22T06:30:51.992Z,1001.61
2016-11-22T06:32:03.016Z,1001.61
2016-11-22T06:33:14.054Z,1001.63
2016-11-22T06:34:25.088Z,1001.71
2016-11-22T06:35:36.372Z,1001.75
2016-11-22T06:36:47.404Z,1001.81
2016-11-22T06:37:58.422Z,1001.84
2016-11-22T06:39:09.462Z,1001.85
2016-11-22T06:40:20.492Z,1001.84
2016-11-22T06:41:31.566Z,1001.86
2016-11-22T06:42:42.649Z,1001.85
2016-11-22T06:43:53.684Z,1001.95
2016-11-22T06:45:04.705Z,1001.96
2016-11-22T06:46:15.946Z,1002
2016-11-22T06:47:27.244Z,1001.95
2016-11-22T06:48:38.295Z,1001.99
2016-11-22T06:49:49.336Z,1002.04
2016-11-22T06:51:00.371Z,1002.02
2016-11-22T06:52:11.587Z,1002.05
2016-11-22T06:53:22.667Z,1002.12
2016-11-22T06:54:33.702Z,1002.15
2016-11-22T06:55:44.733Z,1002.2
2016-11-22T06:56:55.966Z,1002.27
2016-11-22T06:58:06.988Z,1002.25
2016-11-22T06:59:18.075Z,1002.27
2016-11-22T07:00:29.309Z,1002.3
2016-11-22T07:01:40.332Z,1002.28
2016-11-22T07:02:51.568Z,1002.29
2016-11-22T07:04:02.601Z,1002.28
2016-11-22T07:05:13.677Z,1002.36
2016-11-22T07:06:24.705Z,1002.34
2016-11-22T07:07:35.733Z,1002.29
2016-11-22T07:08:46.763Z,1002.3
2016-11-22T07:09:57.789Z,1002.31
2016-11-22T07:11:08.895Z,1002.33
2016-11-22T07:12:19.922Z,1002.34
2016-11-22T07:13:30.956Z,1002.39
2016-11-22T07:14:41.993Z,1002.38
2016-11-22T07:15:53.034Z,1002.41
2016-11-22T07:17:04.305Z,1002.44
2016-11-22T07:18:15.320Z,1002.47
2016-11-22T07:19:26.549Z,1002.47
2016-11-22T07:20:37.576Z,1002.61
2016-11-22T07:21:48.616Z,1002.57
2016-11-22T07:22:59.704Z,1002.62
2016-11-22T07:24:10.722Z,1002.69
2016-11-22T07:25:21.948Z,1002.73
2016-11-22T07:26:32.975Z,1002.73
2016-11-22T07:27:44.013Z,1002.75
2016-11-22T07:28:55.088Z,1002.79
2016-11-22T07:30:06.111Z,1002.82
2016-11-22T07:31:17.143Z,1002.81
2016-11-22T07:32:28.370Z,1002.84
2016-11-22T07:33:39.405Z,1002.92
2016-11-22T07:34:50.482Z,1002.96
2016-11-22T07:36:01.516Z,1002.95
2016-11-22T07:37:12.571Z,1003.01
2016-11-22T07:38:23.607Z,1003.05
2016-11-22T07:39:34.626Z,1002.96
2016-11-22T07:40:45.926Z,1003
2016-11-22T07:41:56.969Z,1002.97
2016-11-22T07:43:08.221Z,1002.96
2016-11-22T07:44:19.247Z,1002.95
2016-11-22T07:45:30.265Z,1003.02
2016-11-22T07:46:41.351Z,1003.06
2016-11-22T07:47:52.391Z,1003.13
2016-11-22T07:49:03.624Z,1003.12
2016-11-22T07:50:14.647Z,1003.08
2016-11-22T07:51:25.689Z,1003.07
2016-11-22T07:52:36.792Z,1003.12
2016-11-22T07:53:47.829Z,1003.14
2016-11-22T07:54:58.863Z,1003.2
2016-11-22T07:56:09.898Z,1003.25
2016-11-22T07:57:20.921Z,1003.29
2016-11-22T07:58:32.000Z,1003.33
2016-11-22T07:59:43.052Z,1003.31
2016-11-22T08:00:54.080Z,1003.34
2016-11-22T08:02:05.113Z,1003.37
2016-11-22T08:03:16.144Z,1003.38
2016-11-22T08:04:27.429Z,1003.39
2016-11-22T08:05:38.496Z,1003.42
2016-11-22T08:06:49.527Z,1003.42
2016-11-22T08:08:00.761Z,1003.41
2016-11-22T08:09:11.779Z,1003.49
2016-11-22T08:10:23.010Z,1003.53
2016-11-22T08:11:34.046Z,1003.54
2016-11-22T08:12:45.070Z,1003.59
2016-11-22T08:13:56.099Z,1003.6
2016-11-22T08:15:07.177Z,1003.65
2016-11-22T08:16:18.408Z,1003.7
2016-11-22T08:17:29.646Z,1003.67
2016-11-22T08:18:40.685Z,1003.67
2016-11-22T08:19:51.709Z,1003.67
2016-11-22T08:21:02.824Z,1003.71
2016-11-22T08:22:14.050Z,1003.72
2016-11-22T08:23:25.101Z,1003.77
2016-11-22T08:24:36.126Z,1003.73
2016-11-22T08:25:47.165Z,1003.74
2016-11-22T08:26:58.252Z,1003.77
2016-11-22T08:28:09.295Z,1003.83
2016-11-22T08:29:20.328Z,1003.81
2016-11-22T08:30:31.366Z,1003.82
2016-11-22T08:31:42.392Z,1003.87
2016-11-22T08:32:53.478Z,1003.88
2016-11-22T08:34:04.709Z,1003.89
2016-11-22T08:35:15.740Z,1003.87
2016-11-22T08:36:26.771Z,1003.9
2016-11-22T08:37:37.808Z,1003.98
2016-11-22T08:38:48.880Z,1003.93
2016-11-22T08:39:59.921Z,1003.94
2016-11-22T08:41:10.950Z,1004.01
2016-11-22T08:42:21.979Z,1004.03
2016-11-22T08:43:33.015Z,1004.01
2016-11-22T08:44:44.111Z,1004.01
2016-11-22T08:45:55.148Z,1004.06
2016-11-22T08:47:06.188Z,1004.1
2016-11-22T08:48:17.237Z,1004.14
2016-11-22T08:49:28.265Z,1004.19
2016-11-22T08:50:39.350Z,1004.23
2016-11-22T08:51:50.582Z,1004.24
2016-11-22T08:53:01.621Z,1004.22
2016-11-22T08:54:12.681Z,1004.23
2016-11-22T08:55:24.123Z,1004.26
2016-11-22T08:56:35.210Z,1004.34
2016-11-22T08:57:46.475Z,1004.4
2016-11-22T08:58:57.502Z,1004.43
2016-11-22T09:00:08.531Z,1004.41
2016-11-22T09:01:19.595Z,1004.42
2016-11-22T09:02:30.678Z,1004.44
2016-11-22T09:03:41.701Z,1004.45
2016-11-22T09:04:52.740Z,1004.47
2016-11-22T09:06:03.769Z,1004.48
2016-11-22T09:07:14.808Z,1004.49
2016-11-22T09:08:25.888Z,1004.5
2016-11-22T09:09:36.918Z,1004.53
2016-11-22T09:10:47.956Z,1004.54
2016-11-22T09:11:58.997Z,1004.58
2016-11-22T09:13:10.037Z,1004.59
2016-11-22T09:14:21.062Z,1004.64
2016-11-22T09:15:32.087Z,1004.63
2016-11-22T09:16:43.129Z,1004.73
2016-11-22T09:17:54.168Z,1004.68
2016-11-22T09:19:05.253Z,1004.7
2016-11-22T09:20:16.285Z,1004.7
2016-11-22T09:21:27.323Z,1004.74
2016-11-22T09:22:38.355Z,1004.74
2016-11-22T09:23:49.384Z,1004.76
2016-11-22T09:25:00.465Z,1004.78
2016-11-22T09:26:11.486Z,1004.82
2016-11-22T09:27:22.526Z,1004.89
2016-11-22T09:28:33.567Z,1004.91
2016-11-22T09:29:44.585Z,1005.01
2016-11-22T09:30:55.671Z,1005.01
2016-11-22T09:32:06.712Z,1005.02
2016-11-22T09:33:17.778Z,1005.05
2016-11-22T09:34:28.806Z,1005.07
2016-11-22T09:35:39.853Z,1005.1
2016-11-22T09:36:51.131Z,1005.15
2016-11-22T09:38:02.174Z,1005.17
2016-11-22T09:39:13.633Z,1005.27
2016-11-22T09:40:24.670Z,1005.22
2016-11-22T09:41:35.712Z,1005.26
2016-11-22T09:42:46.799Z,1005.23
2016-11-22T09:43:57.839Z,1005.24
2016-11-22T09:45:09.097Z,1005.23
2016-11-22T09:46:20.145Z,1005.27
2016-11-22T09:47:31.174Z,1005.33
2016-11-22T09:48:42.463Z,1005.32
2016-11-22T09:49:53.507Z,1005.37
2016-11-22T09:51:04.561Z,1005.35
2016-11-22T09:52:15.790Z,1005.41
2016-11-22T09:53:27.021Z,1005.4
2016-11-22T09:54:38.114Z,1005.41
2016-11-22T09:55:49.183Z,1005.49
2016-11-22T09:57:00.238Z,1005.54
2016-11-22T09:58:11.282Z,1005.57
2016-11-22T09:59:22.317Z,1005.6
2016-11-22T10:00:33.405Z,1005.63
2016-11-22T10:01:44.642Z,1005.59
2016-11-22T10:02:55.862Z,1005.66
2016-11-22T10:04:06.898Z,1005.64
2016-11-22T10:05:17.937Z,1005.66
2016-11-22T10:06:29.033Z,1005.65
2016-11-22T10:07:40.075Z,1005.62
2016-11-22T10:08:51.110Z,1005.55
2016-11-22T10:10:02.144Z,1005.49
2016-11-22T10:11:13.185Z,1005.51
2016-11-22T10:12:24.285Z,1005.52
2016-11-22T10:13:35.353Z,1005.52
2016-11-22T10:14:46.388Z,1005.56
2016-11-22T10:15:57.424Z,1005.55
2016-11-22T10:17:08.686Z,1005.56
2016-11-22T10:18:19.760Z,1005.58
2016-11-22T10:19:30.799Z,1005.58
2016-11-22T10:20:42.044Z,1005.61
2016-11-22T10:21:53.080Z,1005.63
2016-11-22T10:23:04.122Z,1005.66
2016-11-22T10:24:15.232Z,1005.69
2016-11-22T10:25:26.273Z,1005.69
2016-11-22T10:26:37.318Z,1005.74
2016-11-22T10:27:48.368Z,1005.7
2016-11-22T10:28:59.445Z,1005.73
2016-11-22T10:30:10.542Z,1005.72
2016-11-22T10:31:21.779Z,1005.68
2016-11-22T10:32:32.806Z,1005.65
2016-11-22T10:33:44.182Z,1005.68
2016-11-22T10:34:55.217Z,1005.69
2016-11-22T10:36:06.302Z,1005.79
2016-11-22T10:37:17.353Z,1005.79
2016-11-22T10:38:28.387Z,1005.82
2016-11-22T10:39:39.421Z,1005.87
2016-11-22T10:40:50.671Z,1005.8
2016-11-22T10:42:01.762Z,1005.74
2016-11-22T10:43:12.815Z,1005.73
2016-11-22T10:44:23.840Z,1005.72
2016-11-22T10:45:34.877Z,1005.72
2016-11-22T10:46:45.913Z,1005.77
2016-11-22T10:47:57.004Z,1005.76
2016-11-22T10:49:08.033Z,1005.73
2016-11-22T10:50:19.063Z,1005.69
2016-11-22T10:51:30.096Z,1005.71
2016-11-22T10:52:41.235Z,1005.78
2016-11-22T10:53:52.317Z,1005.74
2016-11-22T10:55:03.343Z,1005.78
2016-11-22T10:56:14.376Z,1005.81
2016-11-22T10:57:25.420Z,1005.84
2016-11-22T10:58:36.449Z,1005.89
2016-11-22T10:59:47.550Z,1005.95
2016-11-22T11:00:58.797Z,1005.98
2016-11-22T11:02:10.034Z,1005.91
2016-11-22T11:03:21.058Z,1005.93
2016-11-22T11:04:32.101Z,1005.86
2016-11-22T11:05:43.185Z,1005.93
2016-11-22T11:06:54.231Z,1005.94
2016-11-22T11:08:05.308Z,1005.91
2016-11-22T11:09:16.345Z,1005.95
2016-11-22T11:10:27.385Z,1005.95
2016-11-22T11:11:38.475Z,1005.98
2016-11-22T11:12:49.506Z,1005.98
2016-11-22T11:14:00.745Z,1005.98
2016-11-22T11:15:11.990Z,1005.94
2016-11-22T11:16:23.026Z,1005.92
2016-11-22T11:17:34.125Z,1005.99
2016-11-22T11:18:45.159Z,1005.95
2016-11-22T11:19:56.182Z,1005.99
2016-11-22T11:21:07.224Z,1006
2016-11-22T11:22:18.261Z,1005.98
2016-11-22T11:23:29.335Z,1006.03
2016-11-22T11:24:40.360Z,1005.97
2016-11-22T11:25:51.404Z,1005.97
2016-11-22T11:27:02.648Z,1005.92
2016-11-22T11:28:13.902Z,1005.96
2016-11-22T11:29:24.990Z,1005.95
2016-11-22T11:30:36.024Z,1005.98
2016-11-22T11:31:47.079Z,1005.96
2016-11-22T11:32:58.137Z,1006.03
2016-11-22T11:34:09.186Z,1006.07
2016-11-22T11:35:20.480Z,1006.1
2016-11-22T11:36:31.516Z,1006.12
2016-11-22T11:37:42.555Z,1006.16
2016-11-22T11:38:53.800Z,1006.17
2016-11-22T11:40:04.820Z,1006.14
2016-11-22T11:41:15.914Z,1006.08
2016-11-22T11:42:27.184Z,1006.1
2016-11-22T11:43:38.224Z,1006.12
2016-11-22T11:44:49.264Z,1006.07
2016-11-22T11:46:00.296Z,1006.06
2016-11-22T11:47:11.390Z,1006.08
2016-11-22T11:48:22.428Z,1006.11
2016-11-22T11:49:33.661Z,1006.13
2016-11-22T11:50:44.699Z,1006.12
2016-11-22T11:51:55.747Z,1006.11
2016-11-22T11:53:06.840Z,1006.11
2016-11-22T11:54:17.875Z,1006.1
2016-11-22T11:55:29.119Z,1006.03
2016-11-22T11:56:40.348Z,1006.02
2016-11-22T11:57:51.377Z,1006
2016-11-22T11:59:02.657Z,1005.99
2016-11-22T12:00:13.692Z,1005.97
2016-11-22T12:01:24.728Z,1006.03
2016-11-22T12:02:35.973Z,1005.97
2016-11-22T12:03:47.039Z,1005.93
2016-11-22T12:04:58.126Z,1005.98
2016-11-22T12:06:09.363Z,1005.99
2016-11-22T12:07:20.396Z,1006
2016-11-22T12:08:31.431Z,1005.93
2016-11-22T12:09:42.475Z,1005.83
2016-11-22T12:10:53.533Z,1005.91
2016-11-22T12:12:04.774Z,1005.92
2016-11-22T12:13:15.797Z,1005.96
2016-11-22T12:14:27.028Z,1005.94
2016-11-22T12:15:38.151Z,1005.94
2016-11-22T12:16:49.189Z,1005.94
2016-11-22T12:18:00.226Z,1005.93
2016-11-22T12:19:11.253Z,1005.92
2016-11-22T12:20:22.299Z,1005.96
2016-11-22T12:21:33.618Z,1005.94
2016-11-22T12:22:44.652Z,1005.93
2016-11-22T12:23:55.695Z,1005.96
2016-11-22T12:25:06.745Z,1005.93
2016-11-22T12:26:17.980Z,1005.95
2016-11-22T12:27:29.065Z,1006
2016-11-22T12:28:40.117Z,1005.96
2016-11-22T12:29:51.163Z,1005.96
2016-11-22T12:31:02.389Z,1005.95
2016-11-22T12:32:13.430Z,1005.98
2016-11-22T12:33:24.518Z,1005.96
2016-11-22T12:34:35.561Z,1006.02
2016-11-22T12:35:46.587Z,1006.04
2016-11-22T12:36:57.611Z,1006.07
2016-11-22T12:38:08.627Z,1006.07
2016-11-22T12:39:19.710Z,1006.04
2016-11-22T12:40:30.948Z,1006.06
2016-11-22T12:41:42.002Z,1006.02
2016-11-22T12:42:53.042Z,1006.06
2016-11-22T12:44:04.078Z,1006.12
2016-11-22T12:45:15.165Z,1006.12
2016-11-22T12:46:26.387Z,1006.2
2016-11-22T12:47:37.620Z,1006.21
2016-11-22T12:48:49.040Z,1006.26
2016-11-22T12:50:00.073Z,1006.27
2016-11-22T12:51:11.176Z,1006.27
2016-11-22T12:52:22.212Z,1006.3
2016-11-22T12:53:33.260Z,1006.31
2016-11-22T12:54:44.287Z,1006.3
2016-11-22T12:55:55.320Z,1006.29
2016-11-22T12:57:06.402Z,1006.31
2016-11-22T12:58:17.635Z,1006.32
2016-11-22T12:59:28.874Z,1006.29
2016-11-22T13:00:40.104Z,1006.36
2016-11-22T13:01:51.153Z,1006.33
2016-11-22T13:03:02.444Z,1006.34
2016-11-22T13:04:13.480Z,1006.35
2016-11-22T13:05:24.513Z,1006.32
2016-11-22T13:06:35.544Z,1006.28
2016-11-22T13:07:46.643Z,1006.24
2016-11-22T13:08:57.744Z,1006.25
2016-11-22T13:10:08.793Z,1006.18
2016-11-22T13:11:19.899Z,1006.18
2016-11-22T13:12:30.945Z,1006.19
2016-11-22T13:13:41.973Z,1006.24
2016-11-22T13:14:53.051Z,1006.24
2016-11-22T13:16:04.081Z,1006.23
2016-11-22T13:17:15.319Z,1006.2
2016-11-22T13:18:26.350Z,1006.13
2016-11-22T13:19:37.395Z,1006.16
2016-11-22T13:20:48.473Z,1006.17
2016-11-22T13:21:59.530Z,1006.14
2016-11-22T13:23:10.560Z,1006.15
2016-11-22T13:24:21.597Z,1006.15
2016-11-22T13:25:32.641Z,1006.12
2016-11-22T13:26:43.720Z,1006.09
2016-11-22T13:27:54.743Z,1006.09
2016-11-22T13:29:05.791Z,1006.09
2016-11-22T13:30:16.840Z,1006.12
2016-11-22T13:31:28.066Z,1006.15
2016-11-22T13:32:39.195Z,1006.14
2016-11-22T13:33:50.463Z,1006.15
2016-11-22T13:35:01.712Z,1006.16
2016-11-22T13:36:12.741Z,1006.18
2016-11-22T13:37:23.791Z,1006.15
2016-11-22T13:38:34.885Z,1006.21
2016-11-22T13:39:45.936Z,1006.22
2016-11-22T13:40:56.962Z,1006.29
2016-11-22T13:42:08.399Z,1006.33
2016-11-22T13:43:19.449Z,1006.35
2016-11-22T13:44:30.738Z,1006.36
2016-11-22T13:45:41.761Z,1006.36
2016-11-22T13:46:52.780Z,1006.38
2016-11-22T13:48:03.813Z,1006.36
2016-11-22T13:49:14.843Z,1006.36
2016-11-22T13:50:25.974Z,1006.31
2016-11-22T13:51:37.008Z,1006.3
2016-11-22T13:52:48.244Z,1006.29
2016-11-22T13:53:59.296Z,1006.35
2016-11-22T13:55:10.336Z,1006.36
2016-11-22T13:56:21.408Z,1006.29
2016-11-22T13:57:32.442Z,1006.22
2016-11-22T13:58:43.467Z,1006.16
2016-11-22T13:59:54.500Z,1006.15
2016-11-22T14:01:05.536Z,1006.24
2016-11-22T14:02:16.647Z,1006.23
2016-11-22T14:03:27.885Z,1006.33
2016-11-22T14:04:38.935Z,1006.39
2016-11-22T14:05:49.971Z,1006.44
2016-11-22T14:07:01.018Z,1006.52
2016-11-22T14:08:12.108Z,1006.62
2016-11-22T14:09:23.145Z,1006.61
2016-11-22T14:10:34.166Z,1006.59
2016-11-22T14:11:45.204Z,1006.6
2016-11-22T14:12:56.258Z,1006.59
2016-11-22T14:14:07.337Z,1006.59
2016-11-22T14:15:18.357Z,1006.65
2016-11-22T14:16:29.417Z,1006.67
2016-11-22T14:17:40.447Z,1006.7
2016-11-22T14:18:51.497Z,1006.78
2016-11-22T14:20:02.594Z,1006.86
2016-11-22T14:21:13.623Z,1006.92
2016-11-22T14:22:24.664Z,1006.93
2016-11-22T14:23:35.707Z,1006.88
2016-11-22T14:24:46.754Z,1006.96
2016-11-22T14:25:57.832Z,1006.91
2016-11-22T14:27:08.850Z,1006.91
2016-11-22T14:28:20.090Z,1006.89
2016-11-22T14:29:31.117Z,1006.94
2016-11-22T14:30:42.146Z,1006.95
2016-11-22T14:31:53.222Z,1006.9